Sunday, June 24, 2018, 8:44 PM EDT
Back to Local

KFVE, Northern Aroostook Regional

Location: Saint Agatha, ME, United States Lat: 47.283
Local Time: 8:44 PM EDT ( 0:44 GMT) Lon: -68.3
Time Zone: US/Eastern Elev: 987 ft

Show me the last for .
Show Decoded

2018-06-24 19:53 METAR KFVE 242353Z AUTO 00000KT 10SM BKN090 BKN110 16/08 A2987 RMK AO2 SLP112
                 60000 T01610083 10206 20161 51012 =
2018-06-24 18:53 METAR KFVE 242253Z AUTO 01004KT 10SM FEW060 FEW070 OVC100 16/08 A2986 RMK AO2
                 RAB41E52 SLP109 P0000 T01610083 =
2018-06-24 17:53 METAR KFVE 242153Z AUTO 36008KT 10SM OVC100 16/08 A2985 RMK AO2 SLP107 T01610078
                 =
2018-06-24 16:53 METAR KFVE 242053Z AUTO 01011G14KT 10SM OVC060 17/08 A2983 RMK AO2 SLP101
                 T01670083 51013 =
2018-06-24 15:53 METAR KFVE 241953Z AUTO 35012KT 10SM OVC055 16/08 A2983 RMK AO2 SLP099 T01610078
                 =
2018-06-24 14:53 METAR KFVE 241853Z AUTO 35011KT 10SM FEW049 BKN065 OVC080 18/08 A2981 RMK AO2
                 SLP092 T01780083 =
2018-06-24 13:53 METAR KFVE 241753Z AUTO 34013G19KT 10SM FEW043 SCT050 BKN100 20/09 A2980 RMK AO2
                 SLP086 T02000089 10228 20167 53015 =
2018-06-24 12:53 METAR KFVE 241653Z AUTO 35013G21KT 320V020 10SM FEW043 22/09 A2978 RMK AO2
                 SLP079 T02220094 =
2018-06-24 11:53 METAR KFVE 241553Z AUTO 33015KT 10SM CLR 22/09 A2976 RMK AO2 SLP074 T02170094 =
2018-06-24 10:53 METAR KFVE 241453Z AUTO 31009KT 10SM CLR 19/09 A2975 RMK AO2 SLP071 T01890094
                 51012 =
2018-06-24 09:53 METAR KFVE 241353Z AUTO 33008KT 10SM CLR 18/10 A2974 RMK AO2 SLP068 T01830100 =
2018-06-24 08:53 METAR KFVE 241253Z AUTO 33012KT 10SM SCT110 17/09 A2974 RMK AO2 SLP065 T01720094
                 =
2018-06-24 07:53 METAR KFVE 241153Z AUTO 33008KT 10SM OVC100 17/11 A2972 RMK AO2 SLP058 T01720111
                 10172 20144 53006 =
2018-06-24 06:53 METAR KFVE 241053Z AUTO 25003KT 10SM OVC100 16/11 A2970 RMK AO2 SLP053 T01560106
                 =
2018-06-24 05:53 METAR KFVE 240953Z AUTO 00000KT 10SM OVC100 14/10 A2970 RMK AO2 SLP051 T01440100
                 =
2018-06-24 04:53 METAR KFVE 240853Z AUTO 19007KT 10SM OVC110 14/09 A2970 RMK AO2 SLP051 T01440094
                 56011 =
2018-06-24 03:53 METAR KFVE 240753Z AUTO 18005KT 10SM FEW065 OVC110 15/09 A2970 RMK AO2 SLP052
                 T01500094 =
2018-06-24 02:53 METAR KFVE 240653Z AUTO 17005KT 10SM OVC110 16/09 A2971 RMK AO2 SLP056 T01560094
                 =
2018-06-24 01:53 METAR KFVE 240553Z AUTO 18006KT 10SM SCT120 16/09 A2973 RMK AO2 SLP063 T01560094
                 10200 20156 56013 =
2018-06-24 00:53 METAR KFVE 240453Z AUTO 19007KT 10SM FEW120 16/09 A2974 RMK AO2 SLP067 T01610094
                 402720122 =
2018-06-23 23:53 METAR KFVE 240353Z AUTO 19006KT 10SM CLR 17/09 A2976 RMK AO2 SLP071 T01670089 =
2018-06-23 22:53 METAR KFVE 240253Z AUTO 18009KT 10SM CLR 17/09 A2977 RMK AO2 SLP076 T01720089
                 58005 =
2018-06-23 21:53 METAR KFVE 240153Z AUTO 16008KT 10SM CLR 18/10 A2979 RMK AO2 SLP082 T01780100 =
2018-06-23 20:53 METAR KFVE 240053Z AUTO 16009KT 10SM CLR 19/11 A2978 RMK AO2 SLP080 T01890111 =

Support USWX by starting your Amazon purchase here.